KOGD/OGD METAR and TAF weather

Enter ICAO airport designator
Station Type Date Time Source
KOGD METAR 2020/01/19 22:53 UTC NOAA

KOGD 192253Z 32007KT 10SM CLR 01/M08 A3045 RMK AO2 SLP337 T00061078


Station Type Date Time Source
KOGD Decoded METAR 2020/01/19 22:53 UTC NOAA

OGDEN-HINCKLEY AIRPORT, UT, United States (KOGD) 41-12N 112-01W 1353M
Jan 19, 2020 - 05:53 PM EST / 2020.01.19 2253 UTC
Wind: from the NW (320 degrees) at 8 MPH (7 KT):0
Visibility: 10 mile(s):0
Sky conditions: clear
Temperature: 33.1 F (0.6 C)
Windchill: 26 F (-3 C):1
Dew Point: 18.0 F (-7.8 C)
Relative Humidity: 53%
Pressure (altimeter): 30.45 in. Hg (1031 hPa)
ob: KOGD 192253Z 32007KT 10SM CLR 01/M08 A3045 RMK AO2 SLP337 T00061078
cycle: 23

Station Type Date Time Source
KOGD TAF 2020/01/19 18:42 UTC NOAA

TAF KOGD 191741Z 1918/2018 33006KT P6SM SCT250
FM200300 17005KT P6SM SCT050 SCT200
FM201000 18005KT P6SM BKN120

Example: see airport list